AirNav   Air Wisconsin Up To $57,000 Bonus
 
 806 users online  

30FD City of Fort Lauderdale Heliport
Fort Lauderdale, Florida, USA

GOING TO FORT LAUDERDALE?


FAA INFORMATION EFFECTIVE 07 NOVEMBER 2019

Location

FAA Identifier: 30FD
Lat/Long: 26-07-26.3100N 080-08-39.1620W
26-07.438500N 080-08.652700W
26.1239750,-80.1442117
(estimated)
Elevation: 6 ft. / 2 m (estimated)
Variation: 03W (1985)
Time zone: UTC -5 (UTC -4 during Daylight Saving Time)
Zip code: 33301

Heliport Operations

Heliport use: Private use. Permission required prior to landing
Activation date: 08/1991
Control tower: no
ARTCC: MIAMI CENTER
FSS: MIAMI FLIGHT SERVICE STATION
Attendance: UNATNDD
Wind indicator: yes
Segmented circle: no
Lights: SS-SR
Beacon: white-green-yellow (heliport)
ACTVT ROTG BCN - UNICOM.

Heliport Communications

UNICOM: 123.05
WX ASOS at FLL (3 nm S): PHONE 954-359-7857
WX ASOS at FXE (5 nm N): PHONE 954-772-2537
WX ASOS at PMP (8 nm N): PHONE 954-783-3720
WX ASOS at HWO (9 nm SW): PHONE 954-983-5904
WX ASOS at OPF (15 nm SW): 125.9 (305-681-4063)
WX AWOS-3 at BCT (15 nm N): 121.125 (561-391-2696)

Nearby radio navigation aids

VOR radial/distance  VOR name  Freq  Var
FLLr028/3.2FORT LAUDERDALE VOR/DME114.4006W
VKZr005/22.3VIRGINIA KEY VOR/DME117.1004W
DHPr034/22.4DOLPHIN VORTAC113.9004W
PBIr188/33.5PALM BEACH VORTAC115.7003W

Heliport Services

Runway Information

Helipad H1

Dimensions: 44 x 44 ft. / 13 x 13 m
Surface: asphalt/concrete
Runway edge lights: FLD
Operational restrictions: CIRCULAR HELIPAD.
Latitude: 26-07.438500N
Longitude: 080-08.652700W
Elevation: 6.0 ft.
Traffic pattern: leftleft

Heliport Ownership and Management from official FAA records

Ownership: Publicly-owned
Owner: CITY OF FORT LAUDERDALE
1401 W COMMERCIAL BLVD STE 200
FORT LAUDERDALE, FL 33309
Phone 954-761-5002
Manager: WILLIAM H. CROUCH JR
1401 W COMMERCIAL BLVD STE 200
FORT LAUDERDALE, FL 33309
Phone 954-938-4966

Additional Remarks

A52-H1 40 FT PLINES 50 FT NORTH OF PAD.
NUMEROUS CRANES INVOF HELIPAD.
MAXIMUM ROTOR DIAMETER 44 FT.
FOR CD CTC MIAMI APCH AT 305-869-5432.

Instrument Procedures

There are no published instrument procedures at 30FD.

Some nearby airports with instrument procedures:

KFLL - Fort Lauderdale/Hollywood International Airport (3 nm S)
KFXE - Fort Lauderdale Executive Airport (5 nm N)
KPMP - Pompano Beach Airpark (8 nm N)
KHWO - North Perry Airport (9 nm SW)
KOPF - Miami-Opa Locka Executive Airport (15 nm SW)
KBCT - Boca Raton Airport (15 nm N)
 
Loc | Ops | Rwys | IFR | FBO | Links
Com | Nav | Svcs | Stats | Notes


 
Area around 30FD (City of Fort Lauderdale Heliport)
 
Road maps at: MapQuest Bing Google
 
Aerial photo
No photo
 
Sectional chart

 
Airport distance calculator
Flying to City of Fort Lauderdale Heliport? Find the distance to fly.

From to 30FD

Sunrise and sunset
Times for 15-Nov-2019
 Local
(UTC-5)
 Zulu
(UTC)
Morning civil twilight06:1611:16
Sunrise06:4011:40
Sunset17:3022:30
Evening civil twilight17:5522:55

Current date and time
Zulu (UTC)  16-Nov-2019 01:28:36
Local (UTC-5)  15-Nov-2019 20:28:36
 
METAR
KFLL 
3nm S 
160053Z 25007KT 10SM -RA FEW006 BKN110 22/22 A2989 RMK AO2 RAE29B53 SLP120 PCPN VRY LGT P0000 T02220217
KFXE 
5nm NW 
160053Z 26005KT 10SM SCT035 SCT110 22/22 A2989 RMK AO2 RAE12B28E46 SLP125 P0000 T02220217
KPMP 
8nm N 
160053Z 27007KT 10SM FEW120 23/22 A2989 RMK AO2 RAB38E50 SLP122 P0000 T02280217
KHWO 
9nm SW 
160053Z 24004KT 10SM SCT110 23/22 A2991 RMK AO2 RAB14E34 SLP128 P0000 T02330217
KOPF 
15nm SW 
160053Z 28003KT 10SM FEW100 SCT120 23/22 A2990 RMK AO2 RAB35E45 SLP126 P0000 T02330222
KBCT 
16nm N 
160047Z 25006KT 10SM FEW075 23/22 A2989
TAF
KFLL 
3nm S 
152356Z 1600/1706 VRB05KT 6SM -SHRA SCT035 BKN150 FM160600 31008KT P6SM SCT025 BKN100 FM161200 31012KT P6SM FEW030 SCT120 FM161600 33013G20KT P6SM FEW250 FM170000 32009KT P6SM FEW250
KFXE 
5nm NW 
152114Z 1521/1618 25010KT P6SM VCTS SCT020CB BKN035 BKN100 TEMPO 1521/1522 VRB12G22KT 4SM SHRA BKN020 BKN040 OVC100 FM160000 26008KT P6SM VCSH SCT030 BKN050 BKN120 FM161000 30009KT P6SM FEW030 SCT050 SCT120
KOPF 
15nm SW 
152114Z 1521/1618 26008KT P6SM VCTS SCT025CB BKN070 TEMPO 1521/1522 VRB12G22KT 4SM SHRA BKN020 OVC100 FM160000 27007KT P6SM VCSH SCT030 BKN050 BKN120 FM161000 31010KT P6SM FEW030 SCT050 SCT120
NOTAMs
Click for the latest NOTAMs
NOTAMs are issued by the DoD/FAA and will open in a separate window not controlled by AirNav.

 

 
 

Would you like to see your business listed on this page?

 If your business provides an interesting product or service to pilots, flight crews, aircraft, or users of the City of Fort Lauderdale Heliport, you should consider listing it here.  To start the listing process, click on the button below
 
Add a business
 

Other Pages about City of Fort Lauderdale Heliport

Update a link
 
Copyright © AirNav, LLC. All rights reserved. Privacy Policy  Contact